createdAt,value
2022-10-25T00:00:54.062Z,7.72
2022-10-25T00:03:21.892Z,8.73
2022-10-25T00:05:50.053Z,8.38
2022-10-25T00:08:17.910Z,8.18
2022-10-25T00:10:45.757Z,7.25
2022-10-25T00:13:13.932Z,5.97
2022-10-25T00:15:41.800Z,5.93
2022-10-25T00:18:11.103Z,6.07
2022-10-25T00:20:39.543Z,7.72
2022-10-25T00:23:07.385Z,9.48
2022-10-25T00:25:35.238Z,7.20
2022-10-25T00:28:03.112Z,4.13
2022-10-25T00:30:30.981Z,6.45
2022-10-25T00:32:58.911Z,6.20
2022-10-25T00:35:28.329Z,5.47
2022-10-25T00:37:56.175Z,5.35
2022-10-25T00:40:24.029Z,4.70
2022-10-25T00:42:52.001Z,4.47
2022-10-25T00:45:26.946Z,4.43
2022-10-25T00:47:59.355Z,4.63
2022-10-25T00:50:37.150Z,5.95
2022-10-25T00:53:12.699Z,3.25
2022-10-25T00:55:45.514Z,4.15
2022-10-25T00:58:17.482Z,5.38
2022-10-25T01:00:47.001Z,4.28
2022-10-25T01:03:16.002Z,2.70
2022-10-25T01:05:46.050Z,3.35
2022-10-25T01:08:14.971Z,6.18
2022-10-25T01:10:42.942Z,5.55
2022-10-25T01:13:10.970Z,2.58
2022-10-25T01:15:47.667Z,2.95
2022-10-25T01:18:19.680Z,5.57
2022-10-25T01:21:38.955Z,4.10
2022-10-25T01:24:35.770Z,2.90
2022-10-25T01:27:16.792Z,4.72
2022-10-25T01:30:10.002Z,3.28
2022-10-25T01:32:49.558Z,3.80
2022-10-25T01:35:28.687Z,4.57
2022-10-25T01:38:29.151Z,4.30
2022-10-25T01:41:08.401Z,3.50
2022-10-25T01:43:46.496Z,5.22
2022-10-25T01:46:23.632Z,3.60
2022-10-25T01:48:59.324Z,4.50
2022-10-25T01:51:28.536Z,3.25
2022-10-25T01:53:56.403Z,2.88
2022-10-25T01:56:29.061Z,3.97
2022-10-25T01:59:24.855Z,2.47
2022-10-25T02:02:05.271Z,3.10
2022-10-25T02:04:44.966Z,2.80
2022-10-25T02:07:19.535Z,5.20
2022-10-25T02:09:57.042Z,2.70
2022-10-25T02:12:31.746Z,2.58
2022-10-25T02:15:09.899Z,4.05
2022-10-25T02:17:42.032Z,2.70
2022-10-25T02:20:14.755Z,4.70
2022-10-25T02:22:42.900Z,3.80
2022-10-25T02:25:13.765Z,2.13
2022-10-25T02:27:42.511Z,3.63
2022-10-25T02:30:13.553Z,3.80
2022-10-25T02:32:43.740Z,2.65
2022-10-25T02:35:16.197Z,3.58
2022-10-25T02:37:44.618Z,3.80
2022-10-25T02:40:13.542Z,2.78
2022-10-25T02:42:41.413Z,2.85
2022-10-25T02:45:10.548Z,2.72
2022-10-25T02:47:38.535Z,2.50
2022-10-25T02:50:07.416Z,3.92
2022-10-25T02:52:36.723Z,4.72
2022-10-25T02:55:04.905Z,4.03
2022-10-25T02:57:34.710Z,6.32
2022-10-25T03:00:03.043Z,3.20
2022-10-25T03:02:30.960Z,3.65
2022-10-25T03:04:58.806Z,3.38
2022-10-25T03:07:26.668Z,4.72
2022-10-25T03:09:55.898Z,3.72
2022-10-25T03:12:23.727Z,6.75
2022-10-25T03:14:51.568Z,4.43
2022-10-25T03:17:19.411Z,4.88
2022-10-25T03:19:47.343Z,3.67
2022-10-25T03:22:15.183Z,4.85
2022-10-25T03:24:43.160Z,5.50
2022-10-25T03:27:12.793Z,7.55
2022-10-25T03:29:41.010Z,6.40
2022-10-25T03:32:08.882Z,6.45
2022-10-25T03:34:36.736Z,5.97
2022-10-25T03:37:04.593Z,4.72
2022-10-25T03:39:32.480Z,8.55
2022-10-25T03:42:00.334Z,6.43
2022-10-25T03:44:29.637Z,5.38
2022-10-25T03:46:57.574Z,5.05
2022-10-25T03:49:26.212Z,5.78
2022-10-25T03:51:58.893Z,7.28
2022-10-25T03:54:29.569Z,8.48
2022-10-25T03:57:01.156Z,5.93
2022-10-25T03:59:33.614Z,5.03
2022-10-25T04:02:02.093Z,4.32
2022-10-25T04:04:32.999Z,5.32
2022-10-25T04:07:04.569Z,5.63
2022-10-25T04:09:32.477Z,7.47
2022-10-25T04:12:00.624Z,6.22
2022-10-25T04:14:28.666Z,6.38
2022-10-25T04:16:57.961Z,6.75
2022-10-25T04:19:25.959Z,3.83
2022-10-25T04:21:53.902Z,6.28
2022-10-25T04:24:22.733Z,4.32
2022-10-25T04:26:50.649Z,7.63
2022-10-25T04:29:18.576Z,6.82
2022-10-25T04:31:46.415Z,5.28
2022-10-25T04:34:15.770Z,3.78
2022-10-25T04:36:43.891Z,6.53
2022-10-25T04:39:12.028Z,5.90
2022-10-25T04:41:40.364Z,9.10
2022-10-25T04:44:08.208Z,12.18
2022-10-25T04:46:36.130Z,12.85
2022-10-25T04:49:04.032Z,12.88
2022-10-25T04:51:34.371Z,16.70
2022-10-25T04:54:02.248Z,16.83
2022-10-25T04:56:30.467Z,16.02
2022-10-25T04:58:59.786Z,23.45
2022-10-25T05:01:27.846Z,17.05
2022-10-25T05:03:55.769Z,27.13
2022-10-25T05:06:26.559Z,28.90
2022-10-25T05:08:56.570Z,31.33
2022-10-25T05:11:26.143Z,40.38
2022-10-25T05:13:54.170Z,37.07
2022-10-25T05:16:24.958Z,57.38
2022-10-25T05:18:54.502Z,28.95
2022-10-25T05:21:23.162Z,21.90
2022-10-25T05:23:51.013Z,22.77
2022-10-25T05:26:22.091Z,55.95
2022-10-25T05:28:52.776Z,44.38
2022-10-25T05:31:22.833Z,61.20
2022-10-25T05:33:52.322Z,53.38
2022-10-25T05:36:20.663Z,76.80
2022-10-25T05:38:48.610Z,49.15
2022-10-25T05:41:18.459Z,56.10
2022-10-25T05:43:48.386Z,43.53
2022-10-25T05:46:17.769Z,48.40
2022-10-25T05:48:48.938Z,82.05
2022-10-25T05:51:33.408Z,54.42
2022-10-25T05:54:04.476Z,57.22
2022-10-25T05:56:34.311Z,90.90
2022-10-25T05:59:07.649Z,46.63
2022-10-25T06:01:36.725Z,107.78
2022-10-25T06:04:04.933Z,113.05
2022-10-25T06:06:33.252Z,45.63
2022-10-25T06:09:02.272Z,48.97
2022-10-25T06:11:31.039Z,93.95
2022-10-25T06:13:59.265Z,101.20
2022-10-25T06:16:28.711Z,166.23
2022-10-25T06:18:56.755Z,160.30
2022-10-25T06:21:26.415Z,129.10
2022-10-25T06:23:55.266Z,173.77
2022-10-25T06:26:24.816Z,171.20
2022-10-25T06:28:54.552Z,204.17
2022-10-25T06:31:25.763Z,205.35
2022-10-25T06:33:55.028Z,201.18
2022-10-25T06:36:27.368Z,124.97
2022-10-25T06:38:55.675Z,202.77
2022-10-25T06:41:28.526Z,285.05
2022-10-25T06:43:56.831Z,333.40
2022-10-25T06:46:26.393Z,252.57
2022-10-25T06:48:57.832Z,289.57
2022-10-25T06:51:28.641Z,253.00
2022-10-25T06:53:57.570Z,262.67
2022-10-25T06:56:26.375Z,236.98
2022-10-25T06:58:54.360Z,241.38
2022-10-25T07:01:23.789Z,205.80
2022-10-25T07:03:53.670Z,257.77
2022-10-25T07:06:27.426Z,212.13
2022-10-25T07:09:00.269Z,218.98
2022-10-25T07:11:30.032Z,228.35
2022-10-25T07:13:59.653Z,208.77
2022-10-25T07:16:28.989Z,164.43
2022-10-25T07:18:59.856Z,177.30
2022-10-25T07:21:30.411Z,132.18
2022-10-25T07:23:59.051Z,179.77
2022-10-25T07:26:28.706Z,186.32
2022-10-25T07:28:58.056Z,212.10
2022-10-25T07:31:28.543Z,142.52
2022-10-25T07:36:26.486Z,177.43
2022-10-25T07:38:57.166Z,149.52
2022-10-25T07:41:25.560Z,160.80
2022-10-25T07:43:53.597Z,151.13
2022-10-25T07:46:21.437Z,154.95
2022-10-25T07:48:49.319Z,137.57
2022-10-25T07:51:18.715Z,144.38
2022-10-25T07:53:46.596Z,164.15
2022-10-25T07:56:22.182Z,129.50
2022-10-25T07:58:52.222Z,133.70
2022-10-25T08:01:22.649Z,121.68
2022-10-25T08:06:18.614Z,145.63
2022-10-25T08:08:46.638Z,136.90
2022-10-25T08:11:16.364Z,130.43
2022-10-25T08:13:44.291Z,130.98
2022-10-25T08:16:12.143Z,124.28
2022-10-25T08:18:39.977Z,137.55
2022-10-25T08:21:07.852Z,142.38
2022-10-25T08:23:35.762Z,148.93
2022-10-25T08:26:04.196Z,117.55
2022-10-25T08:28:33.464Z,138.80
2022-10-25T08:31:02.158Z,123.10
2022-10-25T08:33:30.635Z,130.95
2022-10-25T08:36:01.590Z,113.85
2022-10-25T08:38:29.576Z,122.18
2022-10-25T08:41:04.591Z,123.93
2022-10-25T08:43:54.687Z,101.05
2022-10-25T08:46:27.668Z,145.82
2022-10-25T08:49:14.674Z,105.32
2022-10-25T08:51:46.909Z,103.90
2022-10-25T08:54:28.483Z,104.25
2022-10-25T08:57:21.958Z,103.07
2022-10-25T08:59:53.564Z,100.65
2022-10-25T09:02:29.826Z,86.43
2022-10-25T09:04:57.959Z,95.45
2022-10-25T09:07:46.436Z,101.82
2022-10-25T09:10:25.156Z,94.57
2022-10-25T09:13:01.027Z,91.80
2022-10-25T09:15:43.707Z,87.15
2022-10-25T09:18:17.819Z,99.90
2022-10-25T09:20:50.859Z,107.85
2022-10-25T09:23:29.842Z,111.18
2022-10-25T09:26:05.167Z,92.53
2022-10-25T09:28:50.823Z,105.45
2022-10-25T09:31:24.245Z,105.57
2022-10-25T09:34:01.484Z,93.82
2022-10-25T09:36:38.303Z,91.22
2022-10-25T09:39:15.800Z,97.18
2022-10-25T09:41:46.899Z,86.85
2022-10-25T09:44:20.983Z,92.15
2022-10-25T09:46:55.753Z,111.72
2022-10-25T09:49:34.153Z,96.78
2022-10-25T09:52:14.108Z,106.80
2022-10-25T09:54:47.412Z,96.03
2022-10-25T09:57:15.528Z,96.22
2022-10-25T09:59:44.197Z,89.95
2022-10-25T10:02:20.716Z,67.25
2022-10-25T10:04:48.910Z,64.60
2022-10-25T10:07:20.903Z,77.47
2022-10-25T10:09:50.885Z,56.45
2022-10-25T10:12:25.101Z,54.85
2022-10-25T10:14:59.899Z,67.80
2022-10-25T10:17:31.405Z,59.05
2022-10-25T10:20:15.184Z,59.58
2022-10-25T10:25:33.966Z,51.45
2022-10-25T10:28:01.962Z,40.60
2022-10-25T10:30:31.759Z,41.10
2022-10-25T10:33:02.855Z,41.22
2022-10-25T10:35:33.363Z,33.90
2022-10-25T10:40:45.645Z,45.65
2022-10-25T10:43:30.749Z,45.40
2022-10-25T10:46:03.910Z,47.05
2022-10-25T10:48:43.301Z,39.50
2022-10-25T10:51:39.017Z,51.08
2022-10-25T10:54:14.738Z,42.60
2022-10-25T10:56:42.590Z,35.40
2022-10-25T10:59:27.570Z,38.78
2022-10-25T11:01:56.557Z,43.50
2022-10-25T11:04:26.370Z,37.28
2022-10-25T11:06:54.318Z,34.00
2022-10-25T11:09:25.543Z,31.10
2022-10-25T11:12:07.730Z,34.92
2022-10-25T11:14:38.386Z,26.40
2022-10-25T11:17:10.464Z,31.05
2022-10-25T11:19:55.932Z,24.58
2022-10-25T11:22:44.289Z,33.42
2022-10-25T11:25:23.531Z,32.63
2022-10-25T11:28:02.819Z,29.40
2022-10-25T11:30:39.247Z,36.72
2022-10-25T11:33:38.627Z,25.05
2022-10-25T11:36:22.804Z,21.27
2022-10-25T11:39:02.282Z,21.77
2022-10-25T11:41:44.743Z,14.93
2022-10-25T11:44:41.745Z,19.13
2022-10-25T11:47:25.536Z,24.92
2022-10-25T11:50:04.649Z,31.48
2022-10-25T11:52:57.367Z,30.92
2022-10-25T11:55:36.088Z,22.05
2022-10-25T11:58:19.344Z,21.02
2022-10-25T12:00:58.474Z,18.40
2022-10-25T12:03:43.815Z,16.75
2022-10-25T12:06:19.075Z,20.58
2022-10-25T12:08:59.995Z,18.67
2022-10-25T12:11:32.162Z,24.27
2022-10-25T12:14:02.247Z,19.15
2022-10-25T12:16:31.673Z,16.95
2022-10-25T12:19:09.119Z,20.40
2022-10-25T12:21:43.886Z,20.52
2022-10-25T12:24:21.016Z,17.83
2022-10-25T12:26:51.369Z,15.02
2022-10-25T12:29:22.170Z,16.80
2022-10-25T12:31:57.979Z,17.20
2022-10-25T12:34:34.006Z,16.60
2022-10-25T12:37:06.154Z,16.80
2022-10-25T12:39:40.830Z,20.63
2022-10-25T12:42:17.039Z,15.95
2022-10-25T12:45:09.585Z,14.02
2022-10-25T12:47:52.450Z,14.25
2022-10-25T12:50:57.863Z,12.88
2022-10-25T12:53:57.542Z,11.90
2022-10-25T12:56:39.892Z,12.03
2022-10-25T12:59:13.791Z,15.45
2022-10-25T13:01:59.954Z,10.30
2022-10-25T13:04:48.823Z,14.20
2022-10-25T13:07:18.475Z,12.95
2022-10-25T13:09:46.774Z,16.50
2022-10-25T13:12:30.590Z,9.40
2022-10-25T13:15:01.043Z,11.65
2022-10-25T13:18:02.840Z,13.45
2022-10-25T13:20:48.370Z,9.85
2022-10-25T13:24:02.981Z,12.38
2022-10-25T13:26:50.407Z,11.60
2022-10-25T13:29:48.853Z,10.05
2022-10-25T13:32:19.815Z,10.43
2022-10-25T13:34:48.212Z,10.02
2022-10-25T13:37:40.348Z,13.70
2022-10-25T13:40:21.375Z,9.80
2022-10-25T13:42:58.323Z,20.90
2022-10-25T13:45:35.357Z,13.20
2022-10-25T13:48:28.260Z,12.40
2022-10-25T13:50:58.164Z,20.75
2022-10-25T13:53:27.804Z,15.60
2022-10-25T13:56:01.214Z,14.00
2022-10-25T13:58:48.671Z,14.38
2022-10-25T14:01:56.902Z,16.55
2022-10-25T14:04:41.681Z,14.93
2022-10-25T14:07:47.862Z,18.13
2022-10-25T14:10:24.301Z,15.13
2022-10-25T14:12:54.639Z,16.30
2022-10-25T14:15:36.484Z,15.63
2022-10-25T14:18:12.546Z,19.33
2022-10-25T14:20:45.490Z,16.70
2022-10-25T14:23:17.227Z,11.88
2022-10-25T14:25:52.411Z,13.45
2022-10-25T14:28:24.391Z,13.73
2022-10-25T14:30:55.466Z,15.60
2022-10-25T14:33:26.898Z,13.35
2022-10-25T14:35:58.605Z,12.30
2022-10-25T14:38:28.472Z,15.60
2022-10-25T14:40:57.841Z,13.95
2022-10-25T14:43:31.779Z,12.98
2022-10-25T14:46:12.167Z,12.60
2022-10-25T14:48:40.303Z,19.17
2022-10-25T14:51:14.827Z,16.13
2022-10-25T14:53:52.304Z,18.08
2022-10-25T14:56:27.436Z,15.40
2022-10-25T14:58:56.439Z,15.45
2022-10-25T15:01:24.841Z,17.55
2022-10-25T15:03:55.827Z,17.90
2022-10-25T15:06:28.459Z,11.75
2022-10-25T15:09:16.201Z,14.02
2022-10-25T15:12:04.810Z,13.97
2022-10-25T15:14:32.720Z,13.60
2022-10-25T15:17:04.324Z,18.60
2022-10-25T15:19:32.290Z,11.52
2022-10-25T15:22:10.806Z,16.63
2022-10-25T15:24:49.027Z,14.85
2022-10-25T15:27:28.139Z,16.83
2022-10-25T15:29:56.216Z,16.98
2022-10-25T15:32:26.463Z,13.05
2022-10-25T15:34:56.626Z,18.85
2022-10-25T15:37:27.967Z,22.20
2022-10-25T15:39:57.593Z,14.40
2022-10-25T15:42:27.707Z,19.83
2022-10-25T15:44:55.643Z,21.85
2022-10-25T15:47:32.992Z,17.08
2022-10-25T15:50:03.044Z,21.65
2022-10-25T15:52:32.420Z,13.55
2022-10-25T15:55:00.321Z,22.20
2022-10-25T15:57:28.452Z,15.32
2022-10-25T15:59:56.337Z,22.58
2022-10-25T16:02:27.176Z,18.00
2022-10-25T16:04:55.388Z,16.15
2022-10-25T16:07:23.524Z,18.00
2022-10-25T16:09:55.043Z,14.25
2022-10-25T16:12:33.732Z,22.15
2022-10-25T16:15:06.056Z,20.10
2022-10-25T16:17:33.980Z,21.33
2022-10-25T16:20:01.884Z,28.63
2022-10-25T16:22:29.801Z,21.13
2022-10-25T16:24:59.064Z,22.13
2022-10-25T16:27:30.019Z,26.08
2022-10-25T16:29:58.041Z,20.92
2022-10-25T16:32:26.023Z,22.10
2022-10-25T16:34:53.929Z,17.13
2022-10-25T16:37:21.923Z,25.70
2022-10-25T16:39:49.853Z,20.83
2022-10-25T16:42:35.629Z,17.60
2022-10-25T16:45:07.194Z,17.83
2022-10-25T16:47:35.201Z,21.67
2022-10-25T16:50:03.207Z,20.67
2022-10-25T16:52:33.841Z,21.15
2022-10-25T16:55:05.810Z,20.30
2022-10-25T16:57:35.117Z,31.65
2022-10-25T17:00:03.818Z,22.77
2022-10-25T17:02:34.156Z,22.48
2022-10-25T17:05:02.029Z,24.45
2022-10-25T17:07:30.187Z,27.23
2022-10-25T17:09:58.032Z,22.80
2022-10-25T17:12:26.195Z,20.40
2022-10-25T17:14:55.492Z,28.45
2022-10-25T17:19:51.273Z,14.32
2022-10-25T17:22:20.591Z,18.05
2022-10-25T17:24:48.792Z,14.32
2022-10-25T17:27:16.675Z,11.85
2022-10-25T17:29:44.597Z,24.63
2022-10-25T17:32:13.878Z,20.15
2022-10-25T17:34:41.715Z,19.45
2022-10-25T17:37:10.866Z,22.20
2022-10-25T17:39:38.859Z,13.55
2022-10-25T17:42:06.915Z,15.30
2022-10-25T17:44:34.816Z,13.85
2022-10-25T17:47:03.280Z,17.67
2022-10-25T17:49:32.755Z,14.65
2022-10-25T17:52:00.654Z,12.80
2022-10-25T17:54:28.576Z,14.93
2022-10-25T17:56:58.669Z,12.30
2022-10-25T17:59:27.905Z,16.70
2022-10-25T18:01:56.077Z,18.15
2022-10-25T18:04:24.662Z,16.02
2022-10-25T18:06:54.072Z,11.77
2022-10-25T18:09:21.953Z,11.02
2022-10-25T18:11:50.039Z,10.48
2022-10-25T18:14:17.994Z,9.75
2022-10-25T18:16:48.952Z,12.07
2022-10-25T18:19:19.862Z,12.27
2022-10-25T18:21:47.694Z,11.73
2022-10-25T18:24:17.141Z,10.20
2022-10-25T18:26:45.041Z,4.63
2022-10-25T18:29:13.264Z,12.10
2022-10-25T18:31:41.120Z,10.20
2022-10-25T18:34:09.018Z,3.92
2022-10-25T18:36:37.088Z,2.60
2022-10-25T18:39:05.315Z,1.38
2022-10-25T18:41:36.002Z,4.25
2022-10-25T18:44:04.155Z,1.38
2022-10-25T18:46:32.820Z,2.20
2022-10-25T18:49:01.023Z,2.80
2022-10-25T18:51:30.021Z,4.10
2022-10-25T18:53:59.126Z,2.95
2022-10-25T18:56:27.619Z,2.20
2022-10-25T18:58:58.963Z,2.55
2022-10-25T19:01:32.967Z,2.85
2022-10-25T19:04:02.158Z,1.55
2022-10-25T19:06:30.620Z,3.05
2022-10-25T19:08:58.761Z,1.10
2022-10-25T19:11:26.698Z,2.53
2022-10-25T19:13:57.264Z,1.27
2022-10-25T19:16:25.371Z,4.60
2022-10-25T19:18:53.528Z,1.83
2022-10-25T19:21:21.638Z,0.95
2022-10-25T19:23:49.883Z,3.33
2022-10-25T19:26:19.532Z,1.15
2022-10-25T19:28:48.007Z,3.63
2022-10-25T19:31:18.978Z,0.82
2022-10-25T19:33:48.401Z,1.17
2022-10-25T19:36:16.794Z,1.27
2022-10-25T19:38:46.135Z,1.80
2022-10-25T19:41:17.333Z,0.98
2022-10-25T19:43:45.710Z,1.15
2022-10-25T19:46:14.507Z,1.88
2022-10-25T19:48:44.195Z,0.80
2022-10-25T19:51:14.169Z,1.20
2022-10-25T19:53:42.284Z,1.42
2022-10-25T19:56:12.355Z,2.00
2022-10-25T19:58:40.640Z,2.30
2022-10-25T20:01:10.620Z,1.35
2022-10-25T20:03:39.815Z,2.33
2022-10-25T20:06:11.216Z,2.42
2022-10-25T20:08:41.411Z,2.58
2022-10-25T20:11:11.311Z,3.08
2022-10-25T20:13:39.490Z,5.65
2022-10-25T20:16:08.512Z,2.58
2022-10-25T20:18:38.536Z,2.38
2022-10-25T20:21:11.304Z,5.95
2022-10-25T20:23:40.559Z,2.33
2022-10-25T20:26:13.407Z,2.47
2022-10-25T20:28:41.662Z,4.80
2022-10-25T20:31:10.151Z,2.65
2022-10-25T20:33:38.536Z,6.88
2022-10-25T20:36:09.015Z,2.97
2022-10-25T20:41:08.924Z,5.32
2022-10-25T20:43:37.920Z,6.45
2022-10-25T20:46:09.802Z,3.30
2022-10-25T20:48:37.711Z,4.60
2022-10-25T20:51:07.829Z,6.25
2022-10-25T20:56:06.532Z,6.40
2022-10-25T20:58:35.673Z,4.47
2022-10-25T21:01:03.934Z,3.78
2022-10-25T21:03:33.413Z,5.95
2022-10-25T21:06:03.608Z,4.45
2022-10-25T21:08:31.869Z,4.45
2022-10-25T21:11:01.267Z,6.82
2022-10-25T21:13:32.627Z,7.25
2022-10-25T21:16:05.443Z,6.20
2022-10-25T21:18:33.354Z,7.50
2022-10-25T21:21:02.773Z,7.05
2022-10-25T21:23:31.177Z,7.88
2022-10-25T21:25:59.768Z,10.68
2022-10-25T21:28:27.817Z,7.00
2022-10-25T21:31:02.013Z,7.32
2022-10-25T21:33:30.227Z,6.55
2022-10-25T21:36:03.733Z,6.75
2022-10-25T21:38:31.913Z,5.28
2022-10-25T21:41:07.465Z,6.80
2022-10-25T21:43:35.984Z,6.60
2022-10-25T21:46:07.723Z,8.32
2022-10-25T21:48:36.515Z,2.92
2022-10-25T21:51:05.138Z,4.68
2022-10-25T21:53:33.419Z,6.15
2022-10-25T21:56:06.659Z,6.47
2022-10-25T21:58:34.615Z,5.95
2022-10-25T22:01:02.611Z,8.05
2022-10-25T22:03:32.436Z,4.28
2022-10-25T22:06:00.310Z,4.60
2022-10-25T22:08:28.322Z,9.98
2022-10-25T22:13:33.431Z,4.97
2022-10-25T22:16:03.367Z,5.95
2022-10-25T22:18:33.448Z,6.93
2022-10-25T22:21:03.612Z,4.82
2022-10-25T22:23:32.839Z,4.07
2022-10-25T22:26:02.887Z,7.13
2022-10-25T22:28:32.546Z,7.47
2022-10-25T22:31:06.182Z,4.30
2022-10-25T22:33:36.529Z,4.25
2022-10-25T22:36:06.108Z,6.70
2022-10-25T22:38:34.721Z,7.00
2022-10-25T22:41:04.442Z,6.97
2022-10-25T22:43:34.795Z,8.30
2022-10-25T22:46:03.534Z,7.03
2022-10-25T22:48:32.093Z,8.82
2022-10-25T22:51:04.995Z,6.78
2022-10-25T22:53:33.307Z,5.30
2022-10-25T22:56:06.515Z,9.10
2022-10-25T22:58:35.880Z,7.72
2022-10-25T23:01:08.332Z,8.45
2022-10-25T23:03:37.318Z,12.35
2022-10-25T23:06:10.495Z,7.22
2022-10-25T23:08:38.458Z,8.13
2022-10-25T23:11:09.172Z,5.30
2022-10-25T23:13:39.164Z,6.25
2022-10-25T23:16:08.345Z,7.50
2022-10-25T23:18:36.694Z,4.18
2022-10-25T23:21:09.984Z,6.78
2022-10-25T23:23:39.704Z,4.50
2022-10-25T23:26:08.736Z,2.88
2022-10-25T23:28:36.712Z,4.43
2022-10-25T23:31:08.735Z,3.65
2022-10-25T23:33:36.837Z,5.85
2022-10-25T23:36:08.742Z,3.70
2022-10-25T23:38:36.844Z,4.10
2022-10-25T23:41:05.434Z,2.92
2022-10-25T23:43:34.002Z,2.20
2022-10-25T23:46:02.571Z,2.33
2022-10-25T23:48:30.932Z,3.28
2022-10-25T23:53:34.610Z,2.42
2022-10-25T23:56:03.321Z,2.97
2022-10-25T23:58:31.701Z,5.28
